sensor_id;sensor_type;location;lat;lon;timestamp;temperature;humidity
41427;DHT22;27171;51.812;19.514;2022-12-20T00:00:06;0.50;99.90
41427;DHT22;27171;51.812;19.514;2022-12-20T00:03:08;0.50;99.90
41427;DHT22;27171;51.812;19.514;2022-12-20T00:06:10;0.60;99.90
41427;DHT22;27171;51.812;19.514;2022-12-20T00:09:12;0.60;99.90
41427;DHT22;27171;51.812;19.514;2022-12-20T00:12:13;0.60;99.90
41427;DHT22;27171;51.812;19.514;2022-12-20T00:15:14;0.60;99.90
41427;DHT22;27171;51.812;19.514;2022-12-20T00:18:15;0.60;99.90
41427;DHT22;27171;51.812;19.514;2022-12-20T00:21:16;0.60;99.90
41427;DHT22;27171;51.812;19.514;2022-12-20T00:24:18;0.60;99.90
41427;DHT22;27171;51.812;19.514;2022-12-20T00:27:19;0.60;99.90
41427;DHT22;27171;51.812;19.514;2022-12-20T00:30:20;0.60;99.90
41427;DHT22;27171;51.812;19.514;2022-12-20T00:33:22;0.70;99.90
41427;DHT22;27171;51.812;19.514;2022-12-20T00:36:25;0.60;99.90
41427;DHT22;27171;51.812;19.514;2022-12-20T00:39:26;0.60;99.90
41427;DHT22;27171;51.812;19.514;2022-12-20T00:42:27;0.60;99.90
41427;DHT22;27171;51.812;19.514;2022-12-20T00:45:28;0.70;99.90
41427;DHT22;27171;51.812;19.514;2022-12-20T00:48:30;0.60;99.90
41427;DHT22;27171;51.812;19.514;2022-12-20T00:51:31;0.70;99.90
41427;DHT22;27171;51.812;19.514;2022-12-20T00:54:33;0.70;99.90
41427;DHT22;27171;51.812;19.514;2022-12-20T00:57:34;0.70;99.90
41427;DHT22;27171;51.812;19.514;2022-12-20T01:00:36;0.70;99.90
41427;DHT22;27171;51.812;19.514;2022-12-20T01:03:38;0.70;99.90
41427;DHT22;27171;51.812;19.514;2022-12-20T01:06:39;0.70;99.90
41427;DHT22;27171;51.812;19.514;2022-12-20T01:09:40;0.70;99.90
41427;DHT22;27171;51.812;19.514;2022-12-20T01:12:41;0.70;99.90
41427;DHT22;27171;51.812;19.514;2022-12-20T01:15:42;0.80;99.90
41427;DHT22;27171;51.812;19.514;2022-12-20T01:18:44;0.70;99.90
41427;DHT22;27171;51.812;19.514;2022-12-20T01:21:45;0.80;99.90
41427;DHT22;27171;51.812;19.514;2022-12-20T01:24:47;0.80;99.90
41427;DHT22;27171;51.812;19.514;2022-12-20T01:27:48;0.80;99.90
41427;DHT22;27171;51.812;19.514;2022-12-20T01:30:50;0.80;99.90
41427;DHT22;27171;51.812;19.514;2022-12-20T01:33:51;0.80;99.90
41427;DHT22;27171;51.812;19.514;2022-12-20T01:36:52;0.80;99.90
41427;DHT22;27171;51.812;19.514;2022-12-20T01:39:53;0.80;99.90
41427;DHT22;27171;51.812;19.514;2022-12-20T01:42:54;0.80;99.90
41427;DHT22;27171;51.812;19.514;2022-12-20T01:45:55;0.90;99.90
41427;DHT22;27171;51.812;19.514;2022-12-20T01:49:13;0.80;99.90
41427;DHT22;27171;51.812;19.514;2022-12-20T01:52:25;0.90;99.90
41427;DHT22;27171;51.812;19.514;2022-12-20T01:55:28;0.90;99.90
41427;DHT22;27171;51.812;19.514;2022-12-20T01:58:30;0.90;99.90
41427;DHT22;27171;51.812;19.514;2022-12-20T02:01:31;0.90;99.90
41427;DHT22;27171;51.812;19.514;2022-12-20T02:04:33;0.90;99.90
41427;DHT22;27171;51.812;19.514;2022-12-20T02:07:35;0.90;99.90
41427;DHT22;27171;51.812;19.514;2022-12-20T02:30:37;1.00;99.90
41427;DHT22;27171;51.812;19.514;2022-12-20T02:33:42;1.00;99.90
41427;DHT22;27171;51.812;19.514;2022-12-20T02:36:45;1.00;99.90
41427;DHT22;27171;51.812;19.514;2022-12-20T02:39:47;1.10;99.90
41427;DHT22;27171;51.812;19.514;2022-12-20T02:42:52;1.10;99.90
41427;DHT22;27171;51.812;19.514;2022-12-20T02:45:56;1.10;99.90
41427;DHT22;27171;51.812;19.514;2022-12-20T02:49:02;1.10;99.90
41427;DHT22;27171;51.812;19.514;2022-12-20T02:52:05;1.10;99.90
41427;DHT22;27171;51.812;19.514;2022-12-20T02:55:07;1.20;99.90
41427;DHT22;27171;51.812;19.514;2022-12-20T02:59:00;1.20;99.90
41427;DHT22;27171;51.812;19.514;2022-12-20T03:01:49;1.20;99.90
41427;DHT22;27171;51.812;19.514;2022-12-20T03:04:51;1.20;99.90
41427;DHT22;27171;51.812;19.514;2022-12-20T03:07:53;1.20;99.90
41427;DHT22;27171;51.812;19.514;2022-12-20T03:10:58;1.20;99.90
41427;DHT22;27171;51.812;19.514;2022-12-20T03:13:59;1.20;99.90
41427;DHT22;27171;51.812;19.514;2022-12-20T03:17:01;1.30;99.90
41427;DHT22;27171;51.812;19.514;2022-12-20T03:20:03;1.30;99.90
41427;DHT22;27171;51.812;19.514;2022-12-20T03:23:05;1.30;99.90
41427;DHT22;27171;51.812;19.514;2022-12-20T03:26:06;1.30;99.90
41427;DHT22;27171;51.812;19.514;2022-12-20T03:29:16;1.30;99.90
41427;DHT22;27171;51.812;19.514;2022-12-20T03:32:17;1.30;99.90
41427;DHT22;27171;51.812;19.514;2022-12-20T03:35:19;1.30;99.90
41427;DHT22;27171;51.812;19.514;2022-12-20T03:38:20;1.30;99.90
41427;DHT22;27171;51.812;19.514;2022-12-20T03:41:22;1.30;99.90
41427;DHT22;27171;51.812;19.514;2022-12-20T03:44:23;1.30;99.90
41427;DHT22;27171;51.812;19.514;2022-12-20T03:47:25;1.40;99.90
41427;DHT22;27171;51.812;19.514;2022-12-20T03:50:27;1.40;99.90
41427;DHT22;27171;51.812;19.514;2022-12-20T03:53:29;1.40;99.90
41427;DHT22;27171;51.812;19.514;2022-12-20T03:56:30;1.40;99.90
41427;DHT22;27171;51.812;19.514;2022-12-20T03:59:31;1.40;99.90
41427;DHT22;27171;51.812;19.514;2022-12-20T04:02:33;1.40;99.90
41427;DHT22;27171;51.812;19.514;2022-12-20T04:05:35;1.40;99.90
41427;DHT22;27171;51.812;19.514;2022-12-20T04:08:36;1.40;99.90
41427;DHT22;27171;51.812;19.514;2022-12-20T04:11:38;1.40;99.90
41427;DHT22;27171;51.812;19.514;2022-12-20T04:14:44;1.40;99.90
41427;DHT22;27171;51.812;19.514;2022-12-20T04:17:46;1.40;99.90
41427;DHT22;27171;51.812;19.514;2022-12-20T04:20:52;1.40;99.90
41427;DHT22;27171;51.812;19.514;2022-12-20T04:24:00;1.40;99.90
41427;DHT22;27171;51.812;19.514;2022-12-20T04:27:11;1.40;99.90
41427;DHT22;27171;51.812;19.514;2022-12-20T04:30:14;1.40;99.90
41427;DHT22;27171;51.812;19.514;2022-12-20T04:33:15;1.40;99.90
41427;DHT22;27171;51.812;19.514;2022-12-20T04:36:16;1.40;99.90
41427;DHT22;27171;51.812;19.514;2022-12-20T04:39:19;1.40;99.90
41427;DHT22;27171;51.812;19.514;2022-12-20T04:42:41;1.40;99.90
41427;DHT22;27171;51.812;19.514;2022-12-20T04:45:48;1.40;99.90
41427;DHT22;27171;51.812;19.514;2022-12-20T04:48:51;1.40;99.90
41427;DHT22;27171;51.812;19.514;2022-12-20T04:51:53;1.40;99.90
41427;DHT22;27171;51.812;19.514;2022-12-20T04:54:55;1.40;99.90
41427;DHT22;27171;51.812;19.514;2022-12-20T04:58:01;1.40;99.90
41427;DHT22;27171;51.812;19.514;2022-12-20T05:01:02;1.40;99.90
41427;DHT22;27171;51.812;19.514;2022-12-20T05:04:10;1.40;99.90
41427;DHT22;27171;51.812;19.514;2022-12-20T05:07:13;1.40;99.90
41427;DHT22;27171;51.812;19.514;2022-12-20T05:10:20;1.40;99.90
41427;DHT22;27171;51.812;19.514;2022-12-20T05:13:23;1.40;99.90
41427;DHT22;27171;51.812;19.514;2022-12-20T05:16:28;1.40;99.90
41427;DHT22;27171;51.812;19.514;2022-12-20T05:19:30;1.40;99.90
41427;DHT22;27171;51.812;19.514;2022-12-20T05:22:33;1.40;99.90
41427;DHT22;27171;51.812;19.514;2022-12-20T05:25:47;1.30;99.90
41427;DHT22;27171;51.812;19.514;2022-12-20T05:28:50;1.40;99.90
41427;DHT22;27171;51.812;19.514;2022-12-20T05:31:52;1.30;99.90
41427;DHT22;27171;51.812;19.514;2022-12-20T05:34:54;1.30;99.90
41427;DHT22;27171;51.812;19.514;2022-12-20T05:37:55;1.30;99.90
41427;DHT22;27171;51.812;19.514;2022-12-20T05:40:57;1.30;99.90
41427;DHT22;27171;51.812;19.514;2022-12-20T05:43:58;1.30;99.90
41427;DHT22;27171;51.812;19.514;2022-12-20T05:47:01;1.20;99.90
41427;DHT22;27171;51.812;19.514;2022-12-20T05:50:05;1.30;99.90
41427;DHT22;27171;51.812;19.514;2022-12-20T05:53:14;1.20;99.90
41427;DHT22;27171;51.812;19.514;2022-12-20T05:56:21;1.20;99.90
41427;DHT22;27171;51.812;19.514;2022-12-20T05:59:22;1.30;99.90
41427;DHT22;27171;51.812;19.514;2022-12-20T06:02:23;1.30;99.90
41427;DHT22;27171;51.812;19.514;2022-12-20T06:05:32;1.20;99.90
41427;DHT22;27171;51.812;19.514;2022-12-20T06:08:35;1.20;99.90
41427;DHT22;27171;51.812;19.514;2022-12-20T06:11:40;1.20;99.90
41427;DHT22;27171;51.812;19.514;2022-12-20T06:14:48;1.20;99.90
41427;DHT22;27171;51.812;19.514;2022-12-20T06:17:49;1.20;99.90
41427;DHT22;27171;51.812;19.514;2022-12-20T06:20:52;1.20;99.90
41427;DHT22;27171;51.812;19.514;2022-12-20T06:23:58;1.20;99.90
41427;DHT22;27171;51.812;19.514;2022-12-20T06:27:01;1.20;99.90
41427;DHT22;27171;51.812;19.514;2022-12-20T06:30:04;1.20;99.90
41427;DHT22;27171;51.812;19.514;2022-12-20T06:33:17;1.10;99.90
41427;DHT22;27171;51.812;19.514;2022-12-20T06:36:18;1.10;99.90
41427;DHT22;27171;51.812;19.514;2022-12-20T06:39:20;1.10;99.90
41427;DHT22;27171;51.812;19.514;2022-12-20T06:42:36;1.10;99.90
41427;DHT22;27171;51.812;19.514;2022-12-20T06:45:37;1.00;99.90
41427;DHT22;27171;51.812;19.514;2022-12-20T06:48:39;1.00;99.90
41427;DHT22;27171;51.812;19.514;2022-12-20T06:51:41;1.00;99.90
41427;DHT22;27171;51.812;19.514;2022-12-20T06:54:43;1.10;99.90
41427;DHT22;27171;51.812;19.514;2022-12-20T06:57:44;1.10;99.90
41427;DHT22;27171;51.812;19.514;2022-12-20T07:00:46;1.10;99.90
41427;DHT22;27171;51.812;19.514;2022-12-20T07:03:48;1.10;99.90
41427;DHT22;27171;51.812;19.514;2022-12-20T07:06:49;1.10;99.90
41427;DHT22;27171;51.812;19.514;2022-12-20T07:09:50;1.10;99.90
41427;DHT22;27171;51.812;19.514;2022-12-20T07:12:52;1.10;99.90
41427;DHT22;27171;51.812;19.514;2022-12-20T07:16:00;1.10;99.90
41427;DHT22;27171;51.812;19.514;2022-12-20T07:19:02;1.20;99.90
41427;DHT22;27171;51.812;19.514;2022-12-20T07:22:03;1.20;99.90
41427;DHT22;27171;51.812;19.514;2022-12-20T07:25:04;1.20;99.90
41427;DHT22;27171;51.812;19.514;2022-12-20T07:28:05;1.20;99.90
41427;DHT22;27171;51.812;19.514;2022-12-20T07:31:07;1.20;99.90
41427;DHT22;27171;51.812;19.514;2022-12-20T07:34:08;1.20;99.90
41427;DHT22;27171;51.812;19.514;2022-12-20T07:37:09;1.30;99.90
41427;DHT22;27171;51.812;19.514;2022-12-20T07:40:11;1.30;99.90
41427;DHT22;27171;51.812;19.514;2022-12-20T07:43:12;1.30;99.90
41427;DHT22;27171;51.812;19.514;2022-12-20T07:46:14;1.40;99.90
41427;DHT22;27171;51.812;19.514;2022-12-20T07:49:15;1.30;99.90
41427;DHT22;27171;51.812;19.514;2022-12-20T07:52:19;1.40;99.90
41427;DHT22;27171;51.812;19.514;2022-12-20T07:55:21;1.40;99.90
41427;DHT22;27171;51.812;19.514;2022-12-20T07:58:22;1.40;99.90
41427;DHT22;27171;51.812;19.514;2022-12-20T08:01:25;1.40;99.90
41427;DHT22;27171;51.812;19.514;2022-12-20T08:04:27;1.40;99.90
41427;DHT22;27171;51.812;19.514;2022-12-20T08:07:29;1.50;99.90
41427;DHT22;27171;51.812;19.514;2022-12-20T08:10:33;1.50;99.90
41427;DHT22;27171;51.812;19.514;2022-12-20T08:13:36;1.50;99.90
41427;DHT22;27171;51.812;19.514;2022-12-20T08:16:38;1.60;99.90
41427;DHT22;27171;51.812;19.514;2022-12-20T08:19:39;1.60;99.90
41427;DHT22;27171;51.812;19.514;2022-12-20T08:22:40;1.70;99.90
41427;DHT22;27171;51.812;19.514;2022-12-20T08:25:41;1.70;99.90
41427;DHT22;27171;51.812;19.514;2022-12-20T08:28:43;1.80;99.90
41427;DHT22;27171;51.812;19.514;2022-12-20T08:31:44;1.80;99.90
41427;DHT22;27171;51.812;19.514;2022-12-20T08:34:45;1.90;99.90
41427;DHT22;27171;51.812;19.514;2022-12-20T08:37:46;1.90;99.90
41427;DHT22;27171;51.812;19.514;2022-12-20T08:40:48;2.00;99.90
41427;DHT22;27171;51.812;19.514;2022-12-20T08:43:49;2.00;99.90
41427;DHT22;27171;51.812;19.514;2022-12-20T08:46:50;2.00;99.90
41427;DHT22;27171;51.812;19.514;2022-12-20T08:49:51;2.10;99.90
41427;DHT22;27171;51.812;19.514;2022-12-20T08:52:52;2.10;99.90
41427;DHT22;27171;51.812;19.514;2022-12-20T08:55:53;2.10;99.90
41427;DHT22;27171;51.812;19.514;2022-12-20T08:58:54;2.20;99.90
41427;DHT22;27171;51.812;19.514;2022-12-20T09:01:56;2.20;99.90
41427;DHT22;27171;51.812;19.514;2022-12-20T09:04:57;2.30;99.90
41427;DHT22;27171;51.812;19.514;2022-12-20T09:07:58;2.30;99.90
41427;DHT22;27171;51.812;19.514;2022-12-20T09:11:08;2.40;99.90
41427;DHT22;27171;51.812;19.514;2022-12-20T09:14:09;2.40;99.90
41427;DHT22;27171;51.812;19.514;2022-12-20T09:17:10;2.50;99.90
41427;DHT22;27171;51.812;19.514;2022-12-20T09:20:12;2.50;99.90
41427;DHT22;27171;51.812;19.514;2022-12-20T09:23:13;2.50;99.90
41427;DHT22;27171;51.812;19.514;2022-12-20T09:26:14;2.50;99.90
41427;DHT22;27171;51.812;19.514;2022-12-20T09:29:15;2.60;99.90
41427;DHT22;27171;51.812;19.514;2022-12-20T09:32:16;2.60;99.90
41427;DHT22;27171;51.812;19.514;2022-12-20T09:35:18;2.60;99.90
41427;DHT22;27171;51.812;19.514;2022-12-20T09:38:19;2.70;99.90
41427;DHT22;27171;51.812;19.514;2022-12-20T09:44:39;2.70;99.90
41427;DHT22;27171;51.812;19.514;2022-12-20T09:47:42;2.80;99.90
41427;DHT22;27171;51.812;19.514;2022-12-20T09:57:30;3.00;99.90
41427;DHT22;27171;51.812;19.514;2022-12-20T10:00:35;3.00;99.90
41427;DHT22;27171;51.812;19.514;2022-12-20T10:03:40;3.10;99.90
41427;DHT22;27171;51.812;19.514;2022-12-20T10:16:46;3.30;99.90
41427;DHT22;27171;51.812;19.514;2022-12-20T10:26:27;3.30;99.90
41427;DHT22;27171;51.812;19.514;2022-12-20T10:29:28;3.30;99.90
41427;DHT22;27171;51.812;19.514;2022-12-20T10:32:29;3.30;99.90
41427;DHT22;27171;51.812;19.514;2022-12-20T10:35:39;3.30;99.90
41427;DHT22;27171;51.812;19.514;2022-12-20T10:38:45;3.40;99.90
41427;DHT22;27171;51.812;19.514;2022-12-20T10:41:48;3.40;99.90
41427;DHT22;27171;51.812;19.514;2022-12-20T10:44:50;3.30;99.90
41427;DHT22;27171;51.812;19.514;2022-12-20T10:50:42;3.30;99.90
41427;DHT22;27171;51.812;19.514;2022-12-20T10:53:58;3.30;99.90
41427;DHT22;27171;51.812;19.514;2022-12-20T10:57:06;3.30;99.90
41427;DHT22;27171;51.812;19.514;2022-12-20T11:00:27;3.20;99.90
41427;DHT22;27171;51.812;19.514;2022-12-20T11:03:28;3.20;99.90
41427;DHT22;27171;51.812;19.514;2022-12-20T11:06:41;3.20;99.90
41427;DHT22;27171;51.812;19.514;2022-12-20T11:09:55;3.20;99.90
41427;DHT22;27171;51.812;19.514;2022-12-20T11:13:01;3.10;99.90
41427;DHT22;27171;51.812;19.514;2022-12-20T11:16:03;3.10;99.90
41427;DHT22;27171;51.812;19.514;2022-12-20T11:33:06;3.10;99.90
41427;DHT22;27171;51.812;19.514;2022-12-20T11:36:17;3.20;99.90
41427;DHT22;27171;51.812;19.514;2022-12-20T11:53:10;3.60;99.90
41427;DHT22;27171;51.812;19.514;2022-12-20T11:56:26;3.70;99.90
41427;DHT22;27171;51.812;19.514;2022-12-20T11:59:45;3.80;99.90
41427;DHT22;27171;51.812;19.514;2022-12-20T12:02:56;3.90;99.90
41427;DHT22;27171;51.812;19.514;2022-12-20T12:12:28;3.90;99.90
41427;DHT22;27171;51.812;19.514;2022-12-20T12:15:44;3.90;99.90
41427;DHT22;27171;51.812;19.514;2022-12-20T12:18:48;3.90;99.90
41427;DHT22;27171;51.812;19.514;2022-12-20T12:21:53;3.90;99.90
41427;DHT22;27171;51.812;19.514;2022-12-20T12:24:59;3.80;99.90
41427;DHT22;27171;51.812;19.514;2022-12-20T12:28:03;3.90;99.90
41427;DHT22;27171;51.812;19.514;2022-12-20T12:31:17;3.80;99.90
41427;DHT22;27171;51.812;19.514;2022-12-20T12:34:34;3.80;99.90
41427;DHT22;27171;51.812;19.514;2022-12-20T12:41:13;3.80;99.90
41427;DHT22;27171;51.812;19.514;2022-12-20T12:50:45;3.70;99.90
41427;DHT22;27171;51.812;19.514;2022-12-20T12:54:02;3.60;99.90
41427;DHT22;27171;51.812;19.514;2022-12-20T12:57:16;3.60;99.90
41427;DHT22;27171;51.812;19.514;2022-12-20T13:06:55;3.40;99.90
41427;DHT22;27171;51.812;19.514;2022-12-20T13:09:58;3.40;99.90
41427;DHT22;27171;51.812;19.514;2022-12-20T13:13:00;3.40;99.90
41427;DHT22;27171;51.812;19.514;2022-12-20T13:16:08;3.40;99.90
41427;DHT22;27171;51.812;19.514;2022-12-20T13:19:13;3.40;99.90
41427;DHT22;27171;51.812;19.514;2022-12-20T13:22:21;3.40;99.90
41427;DHT22;27171;51.812;19.514;2022-12-20T13:25:28;3.40;99.90
41427;DHT22;27171;51.812;19.514;2022-12-20T13:31:31;3.40;99.90
41427;DHT22;27171;51.812;19.514;2022-12-20T13:34:51;3.40;99.90
41427;DHT22;27171;51.812;19.514;2022-12-20T13:38:04;3.30;99.90
41427;DHT22;27171;51.812;19.514;2022-12-20T13:44:41;3.20;99.90
41427;DHT22;27171;51.812;19.514;2022-12-20T13:48:14;3.20;99.90
41427;DHT22;27171;51.812;19.514;2022-12-20T13:51:21;3.20;99.90
41427;DHT22;27171;51.812;19.514;2022-12-20T13:54:22;3.20;99.90
41427;DHT22;27171;51.812;19.514;2022-12-20T13:57:26;3.20;99.90
41427;DHT22;27171;51.812;19.514;2022-12-20T14:00:28;3.20;99.90
41427;DHT22;27171;51.812;19.514;2022-12-20T14:03:30;3.20;99.90
41427;DHT22;27171;51.812;19.514;2022-12-20T14:06:32;3.10;99.90
41427;DHT22;27171;51.812;19.514;2022-12-20T14:09:35;3.10;99.90
41427;DHT22;27171;51.812;19.514;2022-12-20T14:12:43;3.10;99.90
41427;DHT22;27171;51.812;19.514;2022-12-20T14:15:44;3.10;99.90
41427;DHT22;27171;51.812;19.514;2022-12-20T14:18:49;3.00;99.90
41427;DHT22;27171;51.812;19.514;2022-12-20T14:21:59;3.00;99.90
41427;DHT22;27171;51.812;19.514;2022-12-20T14:25:02;3.00;99.90
41427;DHT22;27171;51.812;19.514;2022-12-20T14:28:04;3.00;99.90
41427;DHT22;27171;51.812;19.514;2022-12-20T14:34:27;2.90;99.90
41427;DHT22;27171;51.812;19.514;2022-12-20T14:37:35;2.90;99.90
41427;DHT22;27171;51.812;19.514;2022-12-20T14:40:40;2.90;99.90
41427;DHT22;27171;51.812;19.514;2022-12-20T14:43:41;2.90;99.90
41427;DHT22;27171;51.812;19.514;2022-12-20T14:46:47;2.90;99.90
41427;DHT22;27171;51.812;19.514;2022-12-20T14:49:53;2.90;99.90
41427;DHT22;27171;51.812;19.514;2022-12-20T14:52:55;2.80;99.90
41427;DHT22;27171;51.812;19.514;2022-12-20T14:55:57;2.80;99.90
41427;DHT22;27171;51.812;19.514;2022-12-20T14:59:13;2.80;99.90
41427;DHT22;27171;51.812;19.514;2022-12-20T15:02:35;2.80;99.90
41427;DHT22;27171;51.812;19.514;2022-12-20T15:05:45;2.80;99.90
41427;DHT22;27171;51.812;19.514;2022-12-20T15:08:46;2.80;99.90
41427;DHT22;27171;51.812;19.514;2022-12-20T15:11:47;2.80;99.90
41427;DHT22;27171;51.812;19.514;2022-12-20T15:14:49;2.80;99.90
41427;DHT22;27171;51.812;19.514;2022-12-20T15:17:50;2.70;99.90
41427;DHT22;27171;51.812;19.514;2022-12-20T15:21:03;2.70;99.90
41427;DHT22;27171;51.812;19.514;2022-12-20T15:24:09;2.70;99.90
41427;DHT22;27171;51.812;19.514;2022-12-20T15:27:14;2.70;99.90
41427;DHT22;27171;51.812;19.514;2022-12-20T15:30:17;2.70;99.90
41427;DHT22;27171;51.812;19.514;2022-12-20T15:33:26;2.70;99.90
41427;DHT22;27171;51.812;19.514;2022-12-20T15:36:28;2.60;99.90
41427;DHT22;27171;51.812;19.514;2022-12-20T15:39:32;2.60;99.90
41427;DHT22;27171;51.812;19.514;2022-12-20T15:42:33;2.60;99.90
41427;DHT22;27171;51.812;19.514;2022-12-20T15:45:35;2.60;99.90
41427;DHT22;27171;51.812;19.514;2022-12-20T15:48:36;2.60;99.90
41427;DHT22;27171;51.812;19.514;2022-12-20T15:51:37;2.60;99.90
41427;DHT22;27171;51.812;19.514;2022-12-20T15:54:38;2.60;99.90
41427;DHT22;27171;51.812;19.514;2022-12-20T15:57:39;2.60;99.90
41427;DHT22;27171;51.812;19.514;2022-12-20T16:00:40;2.60;99.90
41427;DHT22;27171;51.812;19.514;2022-12-20T16:03:41;2.60;99.90
41427;DHT22;27171;51.812;19.514;2022-12-20T16:06:43;2.60;99.90
41427;DHT22;27171;51.812;19.514;2022-12-20T16:09:44;2.60;99.90
41427;DHT22;27171;51.812;19.514;2022-12-20T16:12:45;2.50;99.90
41427;DHT22;27171;51.812;19.514;2022-12-20T16:15:47;2.50;99.90
41427;DHT22;27171;51.812;19.514;2022-12-20T16:18:50;2.50;99.90
41427;DHT22;27171;51.812;19.514;2022-12-20T16:21:51;2.50;99.90
41427;DHT22;27171;51.812;19.514;2022-12-20T16:24:52;2.50;99.90
41427;DHT22;27171;51.812;19.514;2022-12-20T16:27:53;2.50;99.90
41427;DHT22;27171;51.812;19.514;2022-12-20T16:30:54;2.50;99.90
41427;DHT22;27171;51.812;19.514;2022-12-20T16:33:55;2.50;99.90
41427;DHT22;27171;51.812;19.514;2022-12-20T16:36:57;2.50;99.90
41427;DHT22;27171;51.812;19.514;2022-12-20T16:39:58;2.50;99.90
41427;DHT22;27171;51.812;19.514;2022-12-20T16:42:59;2.50;99.90
41427;DHT22;27171;51.812;19.514;2022-12-20T16:46:00;2.50;99.90
41427;DHT22;27171;51.812;19.514;2022-12-20T16:49:01;2.50;99.90
41427;DHT22;27171;51.812;19.514;2022-12-20T16:52:03;2.40;99.90
41427;DHT22;27171;51.812;19.514;2022-12-20T16:55:06;2.40;99.90
41427;DHT22;27171;51.812;19.514;2022-12-20T16:58:07;2.40;99.90
41427;DHT22;27171;51.812;19.514;2022-12-20T17:01:20;2.40;99.90
41427;DHT22;27171;51.812;19.514;2022-12-20T17:04:22;2.40;99.90
41427;DHT22;27171;51.812;19.514;2022-12-20T17:07:24;2.30;99.90
41427;DHT22;27171;51.812;19.514;2022-12-20T17:10:26;2.30;99.90
41427;DHT22;27171;51.812;19.514;2022-12-20T17:13:27;2.30;99.90
41427;DHT22;27171;51.812;19.514;2022-12-20T17:16:28;2.30;99.90
41427;DHT22;27171;51.812;19.514;2022-12-20T17:19:29;2.30;99.90
41427;DHT22;27171;51.812;19.514;2022-12-20T17:22:30;2.30;99.90
41427;DHT22;27171;51.812;19.514;2022-12-20T17:25:34;2.30;99.90
41427;DHT22;27171;51.812;19.514;2022-12-20T17:28:35;2.30;99.90
41427;DHT22;27171;51.812;19.514;2022-12-20T17:31:38;2.20;99.90
41427;DHT22;27171;51.812;19.514;2022-12-20T17:34:39;2.20;99.90
41427;DHT22;27171;51.812;19.514;2022-12-20T17:37:40;2.20;99.90
41427;DHT22;27171;51.812;19.514;2022-12-20T17:40:41;2.20;99.90
41427;DHT22;27171;51.812;19.514;2022-12-20T17:43:43;2.20;99.90
41427;DHT22;27171;51.812;19.514;2022-12-20T17:46:44;2.20;99.90
41427;DHT22;27171;51.812;19.514;2022-12-20T17:49:46;2.20;99.90
41427;DHT22;27171;51.812;19.514;2022-12-20T17:52:47;2.20;99.90
41427;DHT22;27171;51.812;19.514;2022-12-20T17:55:49;2.20;99.90
41427;DHT22;27171;51.812;19.514;2022-12-20T17:58:50;2.20;99.90
41427;DHT22;27171;51.812;19.514;2022-12-20T18:01:55;2.20;99.90
41427;DHT22;27171;51.812;19.514;2022-12-20T18:04:58;2.20;99.90
41427;DHT22;27171;51.812;19.514;2022-12-20T18:08:00;2.20;99.90
41427;DHT22;27171;51.812;19.514;2022-12-20T18:11:01;2.20;99.90
41427;DHT22;27171;51.812;19.514;2022-12-20T18:14:03;2.20;99.90
41427;DHT22;27171;51.812;19.514;2022-12-20T18:17:04;2.10;99.90
41427;DHT22;27171;51.812;19.514;2022-12-20T18:20:06;2.10;99.90
41427;DHT22;27171;51.812;19.514;2022-12-20T18:23:08;2.10;99.90
41427;DHT22;27171;51.812;19.514;2022-12-20T18:26:19;2.20;99.90
41427;DHT22;27171;51.812;19.514;2022-12-20T18:29:21;2.20;99.90
41427;DHT22;27171;51.812;19.514;2022-12-20T18:32:24;2.10;99.90
41427;DHT22;27171;51.812;19.514;2022-12-20T18:35:25;2.10;99.90
41427;DHT22;27171;51.812;19.514;2022-12-20T18:38:27;2.10;99.90
41427;DHT22;27171;51.812;19.514;2022-12-20T18:41:31;2.10;99.90
41427;DHT22;27171;51.812;19.514;2022-12-20T18:44:32;2.10;99.90
41427;DHT22;27171;51.812;19.514;2022-12-20T18:47:33;2.10;99.90
41427;DHT22;27171;51.812;19.514;2022-12-20T18:50:37;2.10;99.90
41427;DHT22;27171;51.812;19.514;2022-12-20T18:53:39;2.10;99.90
41427;DHT22;27171;51.812;19.514;2022-12-20T18:56:41;2.00;99.90
41427;DHT22;27171;51.812;19.514;2022-12-20T18:59:43;2.00;99.90
41427;DHT22;27171;51.812;19.514;2022-12-20T19:02:45;2.00;99.90
41427;DHT22;27171;51.812;19.514;2022-12-20T19:05:51;2.00;99.90
41427;DHT22;27171;51.812;19.514;2022-12-20T19:08:53;2.00;99.90
41427;DHT22;27171;51.812;19.514;2022-12-20T19:11:55;2.00;99.90
41427;DHT22;27171;51.812;19.514;2022-12-20T19:14:56;2.00;99.90
41427;DHT22;27171;51.812;19.514;2022-12-20T19:17:57;2.10;99.90
41427;DHT22;27171;51.812;19.514;2022-12-20T19:21:08;2.10;99.90
41427;DHT22;27171;51.812;19.514;2022-12-20T19:24:10;2.10;99.90
41427;DHT22;27171;51.812;19.514;2022-12-20T19:27:13;2.10;99.90
41427;DHT22;27171;51.812;19.514;2022-12-20T19:30:16;2.10;99.90
41427;DHT22;27171;51.812;19.514;2022-12-20T19:33:19;2.10;99.90
41427;DHT22;27171;51.812;19.514;2022-12-20T19:36:27;2.10;99.90
41427;DHT22;27171;51.812;19.514;2022-12-20T19:39:29;2.10;99.90
41427;DHT22;27171;51.812;19.514;2022-12-20T19:42:31;2.10;99.90
41427;DHT22;27171;51.812;19.514;2022-12-20T19:45:40;2.10;99.90
41427;DHT22;27171;51.812;19.514;2022-12-20T19:48:45;2.10;99.90
41427;DHT22;27171;51.812;19.514;2022-12-20T19:51:47;2.10;99.90
41427;DHT22;27171;51.812;19.514;2022-12-20T19:54:49;2.10;99.90
41427;DHT22;27171;51.812;19.514;2022-12-20T19:57:50;2.20;99.90
41427;DHT22;27171;51.812;19.514;2022-12-20T20:00:52;2.10;99.90
41427;DHT22;27171;51.812;19.514;2022-12-20T20:03:55;2.10;99.90
41427;DHT22;27171;51.812;19.514;2022-12-20T20:06:56;2.10;99.90
41427;DHT22;27171;51.812;19.514;2022-12-20T20:10:02;2.20;99.90
41427;DHT22;27171;51.812;19.514;2022-12-20T20:13:04;2.10;99.90
41427;DHT22;27171;51.812;19.514;2022-12-20T20:16:05;2.10;99.90
41427;DHT22;27171;51.812;19.514;2022-12-20T20:19:07;2.20;99.90
41427;DHT22;27171;51.812;19.514;2022-12-20T20:22:09;2.20;99.90
41427;DHT22;27171;51.812;19.514;2022-12-20T20:25:10;2.20;99.90
41427;DHT22;27171;51.812;19.514;2022-12-20T20:28:13;2.20;99.90
41427;DHT22;27171;51.812;19.514;2022-12-20T20:31:16;2.20;99.90
41427;DHT22;27171;51.812;19.514;2022-12-20T20:34:19;2.20;99.90
41427;DHT22;27171;51.812;19.514;2022-12-20T20:37:21;2.20;99.90
41427;DHT22;27171;51.812;19.514;2022-12-20T20:40:23;2.20;99.90
41427;DHT22;27171;51.812;19.514;2022-12-20T20:43:28;2.20;99.90
41427;DHT22;27171;51.812;19.514;2022-12-20T20:46:30;2.20;99.90
41427;DHT22;27171;51.812;19.514;2022-12-20T20:49:38;2.20;99.90
41427;DHT22;27171;51.812;19.514;2022-12-20T20:52:39;2.20;99.90
41427;DHT22;27171;51.812;19.514;2022-12-20T20:55:42;2.20;99.90
41427;DHT22;27171;51.812;19.514;2022-12-20T20:58:45;2.20;99.90
41427;DHT22;27171;51.812;19.514;2022-12-20T21:01:49;2.20;99.90
41427;DHT22;27171;51.812;19.514;2022-12-20T21:04:51;2.20;99.90
41427;DHT22;27171;51.812;19.514;2022-12-20T21:07:53;2.20;99.90